Rio Real, Brazil
Current Conditions -  °F | °C
As of 1:00 PM on Friday 21 Nov 2014 (Local Time) from SBAR Reporting Station
Broken Clouds Broken Clouds  
Wind Chill: 82°   Ceiling: 10000
Heat Index: 88°   Visibility: 6mi
Dew Point: 73°   Wind: 12mph
Humidity: 74%   Direction: 110°ESE
Pressure: 29.94"   Gusts: NA
Location:  11.48°S, 37.93°W
Report Text: SBAR 211600Z 11010KT 9999 SCT018 BKN100 28/23 Q1014
Loading
Personal Weather Stations






























Interactive Weather Map New forecast layout! Learn more

10-Day Weather Forecast

Advertisements
Track Severe Weather on mobile